sensor_id;sensor_type;location;lat;lon;timestamp;P1;durP1;ratioP1;P2;durP2;ratioP2
3379;SDS011;1703;51.964;7.642;2024-01-30T00:02:17;13.83;;;10.40;;
3379;SDS011;1703;51.964;7.642;2024-01-30T00:04:44;15.73;;;12.13;;
3379;SDS011;1703;51.964;7.642;2024-01-30T00:07:12;15.80;;;10.87;;
3379;SDS011;1703;51.964;7.642;2024-01-30T00:09:39;15.50;;;10.70;;
3379;SDS011;1703;51.964;7.642;2024-01-30T00:12:06;13.97;;;10.67;;
3379;SDS011;1703;51.964;7.642;2024-01-30T00:14:33;17.07;;;11.00;;
3379;SDS011;1703;51.964;7.642;2024-01-30T00:16:59;13.13;;;10.70;;
3379;SDS011;1703;51.964;7.642;2024-01-30T00:19:26;18.00;;;11.10;;
3379;SDS011;1703;51.964;7.642;2024-01-30T00:21:53;15.50;;;10.37;;
3379;SDS011;1703;51.964;7.642;2024-01-30T00:24:21;14.50;;;11.10;;
3379;SDS011;1703;51.964;7.642;2024-01-30T00:26:48;16.33;;;11.07;;
3379;SDS011;1703;51.964;7.642;2024-01-30T00:29:15;14.47;;;10.37;;
3379;SDS011;1703;51.964;7.642;2024-01-30T00:31:44;15.13;;;11.13;;
3379;SDS011;1703;51.964;7.642;2024-01-30T00:34:11;15.73;;;9.00;;
3379;SDS011;1703;51.964;7.642;2024-01-30T00:36:38;12.97;;;9.80;;
3379;SDS011;1703;51.964;7.642;2024-01-30T00:39:05;19.87;;;10.40;;
3379;SDS011;1703;51.964;7.642;2024-01-30T00:41:35;11.87;;;10.30;;
3379;SDS011;1703;51.964;7.642;2024-01-30T00:44:02;15.77;;;11.00;;
3379;SDS011;1703;51.964;7.642;2024-01-30T00:46:29;20.70;;;12.03;;
3379;SDS011;1703;51.964;7.642;2024-01-30T00:48:56;13.73;;;10.30;;
3379;SDS011;1703;51.964;7.642;2024-01-30T00:51:22;13.13;;;10.30;;
3379;SDS011;1703;51.964;7.642;2024-01-30T00:53:50;15.97;;;10.00;;
3379;SDS011;1703;51.964;7.642;2024-01-30T00:56:16;19.67;;;11.97;;
3379;SDS011;1703;51.964;7.642;2024-01-30T00:58:45;11.90;;;10.03;;
3379;SDS011;1703;51.964;7.642;2024-01-30T01:01:12;14.43;;;9.90;;
3379;SDS011;1703;51.964;7.642;2024-01-30T01:03:39;16.33;;;11.37;;
3379;SDS011;1703;51.964;7.642;2024-01-30T01:06:08;15.67;;;11.03;;
3379;SDS011;1703;51.964;7.642;2024-01-30T01:08:35;14.23;;;10.50;;
3379;SDS011;1703;51.964;7.642;2024-01-30T01:11:02;14.03;;;9.60;;
3379;SDS011;1703;51.964;7.642;2024-01-30T01:13:29;18.87;;;10.83;;
3379;SDS011;1703;51.964;7.642;2024-01-30T01:15:57;15.93;;;11.30;;
3379;SDS011;1703;51.964;7.642;2024-01-30T01:18:24;16.40;;;10.70;;
3379;SDS011;1703;51.964;7.642;2024-01-30T01:20:52;15.80;;;10.00;;
3379;SDS011;1703;51.964;7.642;2024-01-30T01:23:19;15.33;;;10.87;;
3379;SDS011;1703;51.964;7.642;2024-01-30T01:25:45;14.43;;;11.33;;
3379;SDS011;1703;51.964;7.642;2024-01-30T01:28:12;15.53;;;11.77;;
3379;SDS011;1703;51.964;7.642;2024-01-30T01:30:39;14.33;;;10.73;;
3379;SDS011;1703;51.964;7.642;2024-01-30T01:33:08;13.10;;;10.13;;
3379;SDS011;1703;51.964;7.642;2024-01-30T01:35:35;15.70;;;11.93;;
3379;SDS011;1703;51.964;7.642;2024-01-30T01:38:02;17.93;;;10.87;;
3379;SDS011;1703;51.964;7.642;2024-01-30T01:40:29;12.50;;;10.67;;
3379;SDS011;1703;51.964;7.642;2024-01-30T01:42:56;15.23;;;10.37;;
3379;SDS011;1703;51.964;7.642;2024-01-30T01:45:23;14.70;;;8.33;;
3379;SDS011;1703;51.964;7.642;2024-01-30T01:47:50;14.53;;;9.67;;
3379;SDS011;1703;51.964;7.642;2024-01-30T01:50:19;13.43;;;9.67;;
3379;SDS011;1703;51.964;7.642;2024-01-30T01:52:47;13.80;;;9.63;;
3379;SDS011;1703;51.964;7.642;2024-01-30T01:55:15;16.93;;;9.97;;
3379;SDS011;1703;51.964;7.642;2024-01-30T01:57:43;15.33;;;9.10;;
3379;SDS011;1703;51.964;7.642;2024-01-30T02:00:11;15.30;;;9.70;;
3379;SDS011;1703;51.964;7.642;2024-01-30T02:02:39;15.90;;;11.17;;
3379;SDS011;1703;51.964;7.642;2024-01-30T02:05:08;14.00;;;10.40;;
3379;SDS011;1703;51.964;7.642;2024-01-30T02:07:36;16.40;;;10.87;;
3379;SDS011;1703;51.964;7.642;2024-01-30T02:10:04;20.80;;;10.60;;
3379;SDS011;1703;51.964;7.642;2024-01-30T02:12:31;13.93;;;11.17;;
3379;SDS011;1703;51.964;7.642;2024-01-30T02:14:58;14.83;;;10.93;;
3379;SDS011;1703;51.964;7.642;2024-01-30T02:17:25;16.07;;;10.90;;
3379;SDS011;1703;51.964;7.642;2024-01-30T02:19:51;12.63;;;10.13;;
3379;SDS011;1703;51.964;7.642;2024-01-30T02:22:20;11.70;;;10.17;;
3379;SDS011;1703;51.964;7.642;2024-01-30T02:24:47;12.33;;;8.83;;
3379;SDS011;1703;51.964;7.642;2024-01-30T02:27:14;15.33;;;10.90;;
3379;SDS011;1703;51.964;7.642;2024-01-30T02:29:41;12.30;;;9.43;;
3379;SDS011;1703;51.964;7.642;2024-01-30T02:32:08;14.90;;;11.10;;
3379;SDS011;1703;51.964;7.642;2024-01-30T02:34:35;18.83;;;11.40;;
3379;SDS011;1703;51.964;7.642;2024-01-30T02:37:01;11.30;;;9.17;;
3379;SDS011;1703;51.964;7.642;2024-01-30T02:39:30;14.37;;;11.00;;
3379;SDS011;1703;51.964;7.642;2024-01-30T02:41:56;19.43;;;10.43;;
3379;SDS011;1703;51.964;7.642;2024-01-30T02:44:23;15.40;;;10.43;;
3379;SDS011;1703;51.964;7.642;2024-01-30T02:46:50;13.87;;;9.30;;
3379;SDS011;1703;51.964;7.642;2024-01-30T02:49:19;14.50;;;10.57;;
3379;SDS011;1703;51.964;7.642;2024-01-30T02:51:46;20.30;;;9.57;;
3379;SDS011;1703;51.964;7.642;2024-01-30T02:54:12;16.23;;;10.27;;
3379;SDS011;1703;51.964;7.642;2024-01-30T02:56:40;13.70;;;9.67;;
3379;SDS011;1703;51.964;7.642;2024-01-30T02:59:07;11.47;;;8.27;;
3379;SDS011;1703;51.964;7.642;2024-01-30T03:01:41;15.70;;;9.60;;
3379;SDS011;1703;51.964;7.642;2024-01-30T03:04:08;13.57;;;9.37;;
3379;SDS011;1703;51.964;7.642;2024-01-30T03:06:35;13.30;;;8.93;;
3379;SDS011;1703;51.964;7.642;2024-01-30T03:09:02;12.97;;;8.87;;
3379;SDS011;1703;51.964;7.642;2024-01-30T03:11:29;15.23;;;9.10;;
3379;SDS011;1703;51.964;7.642;2024-01-30T03:13:58;11.50;;;9.50;;
3379;SDS011;1703;51.964;7.642;2024-01-30T03:16:24;13.13;;;9.27;;
3379;SDS011;1703;51.964;7.642;2024-01-30T03:18:51;13.70;;;9.40;;
3379;SDS011;1703;51.964;7.642;2024-01-30T03:21:18;10.20;;;8.80;;
3379;SDS011;1703;51.964;7.642;2024-01-30T03:23:45;10.70;;;9.53;;
3379;SDS011;1703;51.964;7.642;2024-01-30T03:26:12;12.70;;;9.33;;
3379;SDS011;1703;51.964;7.642;2024-01-30T03:28:39;14.87;;;10.10;;
3379;SDS011;1703;51.964;7.642;2024-01-30T03:31:08;27.07;;;9.23;;
3379;SDS011;1703;51.964;7.642;2024-01-30T03:33:36;10.73;;;7.83;;
3379;SDS011;1703;51.964;7.642;2024-01-30T03:36:03;14.10;;;9.93;;
3379;SDS011;1703;51.964;7.642;2024-01-30T03:38:30;14.83;;;9.33;;
3379;SDS011;1703;51.964;7.642;2024-01-30T03:40:58;15.97;;;8.83;;
3379;SDS011;1703;51.964;7.642;2024-01-30T03:43:25;11.27;;;9.77;;
3379;SDS011;1703;51.964;7.642;2024-01-30T03:45:52;16.37;;;10.10;;
3379;SDS011;1703;51.964;7.642;2024-01-30T03:48:20;13.00;;;9.80;;
3379;SDS011;1703;51.964;7.642;2024-01-30T03:50:47;13.60;;;10.80;;
3379;SDS011;1703;51.964;7.642;2024-01-30T03:53:14;19.33;;;8.77;;
3379;SDS011;1703;51.964;7.642;2024-01-30T03:55:41;17.87;;;11.07;;
3379;SDS011;1703;51.964;7.642;2024-01-30T03:58:08;14.10;;;10.60;;
3379;SDS011;1703;51.964;7.642;2024-01-30T04:00:35;17.53;;;9.73;;
3379;SDS011;1703;51.964;7.642;2024-01-30T04:03:01;15.67;;;10.03;;
3379;SDS011;1703;51.964;7.642;2024-01-30T04:05:30;14.07;;;8.53;;
3379;SDS011;1703;51.964;7.642;2024-01-30T04:07:57;16.83;;;10.17;;
3379;SDS011;1703;51.964;7.642;2024-01-30T04:10:23;15.80;;;11.60;;
3379;SDS011;1703;51.964;7.642;2024-01-30T04:12:50;12.13;;;9.10;;
3379;SDS011;1703;51.964;7.642;2024-01-30T04:15:19;13.53;;;9.67;;
3379;SDS011;1703;51.964;7.642;2024-01-30T04:17:46;13.40;;;9.33;;
3379;SDS011;1703;51.964;7.642;2024-01-30T04:20:13;11.13;;;9.83;;
3379;SDS011;1703;51.964;7.642;2024-01-30T04:22:43;12.10;;;9.70;;
3379;SDS011;1703;51.964;7.642;2024-01-30T04:25:10;16.03;;;10.20;;
3379;SDS011;1703;51.964;7.642;2024-01-30T04:27:37;15.77;;;8.90;;
3379;SDS011;1703;51.964;7.642;2024-01-30T04:30:04;13.00;;;10.70;;
3379;SDS011;1703;51.964;7.642;2024-01-30T04:32:32;18.13;;;9.77;;
3379;SDS011;1703;51.964;7.642;2024-01-30T04:34:59;12.60;;;9.47;;
3379;SDS011;1703;51.964;7.642;2024-01-30T04:37:26;11.37;;;9.37;;
3379;SDS011;1703;51.964;7.642;2024-01-30T04:39:54;12.40;;;9.10;;
3379;SDS011;1703;51.964;7.642;2024-01-30T04:42:20;15.70;;;11.17;;
3379;SDS011;1703;51.964;7.642;2024-01-30T04:44:47;12.70;;;8.93;;
3379;SDS011;1703;51.964;7.642;2024-01-30T04:47:14;14.97;;;9.80;;
3379;SDS011;1703;51.964;7.642;2024-01-30T04:49:41;16.83;;;10.70;;
3379;SDS011;1703;51.964;7.642;2024-01-30T04:52:08;18.60;;;9.70;;
3379;SDS011;1703;51.964;7.642;2024-01-30T04:54:35;16.50;;;9.60;;
3379;SDS011;1703;51.964;7.642;2024-01-30T04:57:03;12.17;;;9.50;;
3379;SDS011;1703;51.964;7.642;2024-01-30T04:59:34;18.73;;;10.90;;
3379;SDS011;1703;51.964;7.642;2024-01-30T05:02:01;18.10;;;10.90;;
3379;SDS011;1703;51.964;7.642;2024-01-30T05:04:28;19.97;;;10.20;;
3379;SDS011;1703;51.964;7.642;2024-01-30T05:06:54;13.60;;;9.30;;
3379;SDS011;1703;51.964;7.642;2024-01-30T05:09:21;15.73;;;9.37;;
3379;SDS011;1703;51.964;7.642;2024-01-30T05:11:48;19.80;;;11.20;;
3379;SDS011;1703;51.964;7.642;2024-01-30T05:14:16;14.87;;;10.03;;
3379;SDS011;1703;51.964;7.642;2024-01-30T05:16:43;13.93;;;9.77;;
3379;SDS011;1703;51.964;7.642;2024-01-30T05:19:12;14.70;;;10.00;;
3379;SDS011;1703;51.964;7.642;2024-01-30T05:21:39;13.67;;;9.20;;
3379;SDS011;1703;51.964;7.642;2024-01-30T05:24:06;13.10;;;9.23;;
3379;SDS011;1703;51.964;7.642;2024-01-30T05:26:34;18.30;;;9.60;;
3379;SDS011;1703;51.964;7.642;2024-01-30T05:29:01;15.83;;;9.97;;
3379;SDS011;1703;51.964;7.642;2024-01-30T05:31:29;11.40;;;9.60;;
3379;SDS011;1703;51.964;7.642;2024-01-30T05:33:56;11.37;;;9.40;;
3379;SDS011;1703;51.964;7.642;2024-01-30T05:36:23;21.03;;;8.77;;
3379;SDS011;1703;51.964;7.642;2024-01-30T05:38:50;11.30;;;9.50;;
3379;SDS011;1703;51.964;7.642;2024-01-30T05:41:17;14.67;;;9.90;;
3379;SDS011;1703;51.964;7.642;2024-01-30T05:43:43;15.17;;;10.90;;
3379;SDS011;1703;51.964;7.642;2024-01-30T05:46:10;15.47;;;10.00;;
3379;SDS011;1703;51.964;7.642;2024-01-30T05:48:38;12.97;;;9.97;;
3379;SDS011;1703;51.964;7.642;2024-01-30T05:51:06;12.90;;;9.53;;
3379;SDS011;1703;51.964;7.642;2024-01-30T05:53:33;15.70;;;9.73;;
3379;SDS011;1703;51.964;7.642;2024-01-30T05:56:01;12.60;;;9.30;;
3379;SDS011;1703;51.964;7.642;2024-01-30T05:58:28;15.70;;;10.00;;
3379;SDS011;1703;51.964;7.642;2024-01-30T06:00:56;16.00;;;9.83;;
3379;SDS011;1703;51.964;7.642;2024-01-30T06:03:23;17.13;;;10.30;;
3379;SDS011;1703;51.964;7.642;2024-01-30T06:05:51;16.23;;;9.40;;
3379;SDS011;1703;51.964;7.642;2024-01-30T06:08:18;13.53;;;9.37;;
3379;SDS011;1703;51.964;7.642;2024-01-30T06:10:45;11.50;;;9.57;;
3379;SDS011;1703;51.964;7.642;2024-01-30T06:13:12;21.67;;;10.17;;
3379;SDS011;1703;51.964;7.642;2024-01-30T06:15:39;16.70;;;10.07;;
3379;SDS011;1703;51.964;7.642;2024-01-30T06:18:06;16.10;;;9.47;;
3379;SDS011;1703;51.964;7.642;2024-01-30T06:20:33;19.53;;;10.53;;
3379;SDS011;1703;51.964;7.642;2024-01-30T06:23:02;17.27;;;10.73;;
3379;SDS011;1703;51.964;7.642;2024-01-30T06:25:29;13.87;;;10.10;;
3379;SDS011;1703;51.964;7.642;2024-01-30T06:27:55;14.67;;;10.33;;
3379;SDS011;1703;51.964;7.642;2024-01-30T06:30:22;13.50;;;8.67;;
3379;SDS011;1703;51.964;7.642;2024-01-30T06:32:49;18.90;;;10.37;;
3379;SDS011;1703;51.964;7.642;2024-01-30T06:35:16;12.93;;;10.60;;
3379;SDS011;1703;51.964;7.642;2024-01-30T06:37:43;14.90;;;9.70;;
3379;SDS011;1703;51.964;7.642;2024-01-30T06:40:12;18.73;;;10.80;;
3379;SDS011;1703;51.964;7.642;2024-01-30T06:42:38;17.73;;;11.37;;
3379;SDS011;1703;51.964;7.642;2024-01-30T06:45:06;12.87;;;9.70;;
3379;SDS011;1703;51.964;7.642;2024-01-30T06:47:34;21.17;;;11.30;;
3379;SDS011;1703;51.964;7.642;2024-01-30T06:50:00;14.60;;;10.80;;
3379;SDS011;1703;51.964;7.642;2024-01-30T06:52:28;12.13;;;9.70;;
3379;SDS011;1703;51.964;7.642;2024-01-30T06:54:55;15.80;;;11.67;;
3379;SDS011;1703;51.964;7.642;2024-01-30T06:57:23;15.33;;;10.03;;
3379;SDS011;1703;51.964;7.642;2024-01-30T06:59:51;18.35;;;11.65;;
3379;SDS011;1703;51.964;7.642;2024-01-30T07:02:17;18.30;;;12.00;;
3379;SDS011;1703;51.964;7.642;2024-01-30T07:04:44;14.77;;;10.23;;
3379;SDS011;1703;51.964;7.642;2024-01-30T07:07:12;13.87;;;9.43;;
3379;SDS011;1703;51.964;7.642;2024-01-30T07:09:40;19.57;;;11.43;;
3379;SDS011;1703;51.964;7.642;2024-01-30T07:12:07;15.60;;;10.20;;
3379;SDS011;1703;51.964;7.642;2024-01-30T07:14:35;17.30;;;10.23;;
3379;SDS011;1703;51.964;7.642;2024-01-30T07:17:02;18.73;;;9.30;;
3379;SDS011;1703;51.964;7.642;2024-01-30T07:19:29;12.77;;;9.03;;
3379;SDS011;1703;51.964;7.642;2024-01-30T07:21:56;16.67;;;9.80;;
3379;SDS011;1703;51.964;7.642;2024-01-30T07:24:23;16.23;;;9.87;;
3379;SDS011;1703;51.964;7.642;2024-01-30T07:26:49;17.80;;;8.40;;
3379;SDS011;1703;51.964;7.642;2024-01-30T07:29:16;20.50;;;9.03;;
3379;SDS011;1703;51.964;7.642;2024-01-30T07:31:44;12.20;;;9.37;;
3379;SDS011;1703;51.964;7.642;2024-01-30T07:34:11;11.70;;;9.33;;
3379;SDS011;1703;51.964;7.642;2024-01-30T07:36:38;17.60;;;9.37;;
3379;SDS011;1703;51.964;7.642;2024-01-30T07:39:05;13.03;;;9.20;;
3379;SDS011;1703;51.964;7.642;2024-01-30T07:41:31;19.97;;;9.67;;
3379;SDS011;1703;51.964;7.642;2024-01-30T07:43:58;17.53;;;10.17;;
3379;SDS011;1703;51.964;7.642;2024-01-30T07:46:26;12.20;;;9.30;;
3379;SDS011;1703;51.964;7.642;2024-01-30T07:48:54;13.40;;;8.80;;
3379;SDS011;1703;51.964;7.642;2024-01-30T07:51:22;16.37;;;9.27;;
3379;SDS011;1703;51.964;7.642;2024-01-30T07:53:48;18.03;;;10.40;;
3379;SDS011;1703;51.964;7.642;2024-01-30T07:56:15;11.43;;;8.80;;
3379;SDS011;1703;51.964;7.642;2024-01-30T07:58:42;11.67;;;8.83;;
3379;SDS011;1703;51.964;7.642;2024-01-30T08:01:09;20.40;;;9.13;;
3379;SDS011;1703;51.964;7.642;2024-01-30T08:03:36;11.63;;;9.43;;
3379;SDS011;1703;51.964;7.642;2024-01-30T08:06:06;16.20;;;9.57;;
3379;SDS011;1703;51.964;7.642;2024-01-30T08:08:33;13.23;;;10.03;;
3379;SDS011;1703;51.964;7.642;2024-01-30T08:10:59;19.73;;;9.20;;
3379;SDS011;1703;51.964;7.642;2024-01-30T08:13:27;16.33;;;9.63;;
3379;SDS011;1703;51.964;7.642;2024-01-30T08:15:53;15.63;;;9.17;;
3379;SDS011;1703;51.964;7.642;2024-01-30T08:18:22;14.50;;;9.17;;
3379;SDS011;1703;51.964;7.642;2024-01-30T08:20:49;12.90;;;8.53;;
3379;SDS011;1703;51.964;7.642;2024-01-30T08:23:17;13.43;;;8.20;;
3379;SDS011;1703;51.964;7.642;2024-01-30T08:25:43;15.33;;;8.10;;
3379;SDS011;1703;51.964;7.642;2024-01-30T08:28:10;18.43;;;8.70;;
3379;SDS011;1703;51.964;7.642;2024-01-30T08:30:37;13.53;;;8.73;;
3379;SDS011;1703;51.964;7.642;2024-01-30T08:33:05;12.23;;;7.80;;
3379;SDS011;1703;51.964;7.642;2024-01-30T08:35:31;17.20;;;9.00;;
3379;SDS011;1703;51.964;7.642;2024-01-30T08:37:58;16.30;;;8.47;;
3379;SDS011;1703;51.964;7.642;2024-01-30T08:40:27;15.87;;;9.10;;
3379;SDS011;1703;51.964;7.642;2024-01-30T08:42:53;11.63;;;7.80;;
3379;SDS011;1703;51.964;7.642;2024-01-30T08:45:20;21.83;;;9.30;;
3379;SDS011;1703;51.964;7.642;2024-01-30T08:47:47;12.67;;;8.07;;
3379;SDS011;1703;51.964;7.642;2024-01-30T08:50:14;8.80;;;7.00;;
3379;SDS011;1703;51.964;7.642;2024-01-30T08:52:41;11.23;;;8.00;;
3379;SDS011;1703;51.964;7.642;2024-01-30T08:55:08;14.33;;;8.80;;
3379;SDS011;1703;51.964;7.642;2024-01-30T08:57:36;23.67;;;8.87;;
3379;SDS011;1703;51.964;7.642;2024-01-30T09:00:04;9.50;;;7.90;;
3379;SDS011;1703;51.964;7.642;2024-01-30T09:02:34;16.03;;;9.13;;
3379;SDS011;1703;51.964;7.642;2024-01-30T09:05:02;11.90;;;7.67;;
3379;SDS011;1703;51.964;7.642;2024-01-30T09:07:29;9.00;;;8.10;;
3379;SDS011;1703;51.964;7.642;2024-01-30T09:09:56;11.23;;;8.57;;
3379;SDS011;1703;51.964;7.642;2024-01-30T09:12:23;10.43;;;7.83;;
3379;SDS011;1703;51.964;7.642;2024-01-30T09:14:51;14.70;;;8.73;;
3379;SDS011;1703;51.964;7.642;2024-01-30T09:17:17;11.70;;;8.97;;
3379;SDS011;1703;51.964;7.642;2024-01-30T09:19:45;13.73;;;9.50;;
3379;SDS011;1703;51.964;7.642;2024-01-30T09:22:12;13.27;;;8.93;;
3379;SDS011;1703;51.964;7.642;2024-01-30T09:24:39;13.03;;;8.23;;
3379;SDS011;1703;51.964;7.642;2024-01-30T09:27:06;11.73;;;8.60;;
3379;SDS011;1703;51.964;7.642;2024-01-30T09:29:33;14.40;;;8.40;;
3379;SDS011;1703;51.964;7.642;2024-01-30T09:32:03;13.90;;;8.50;;
3379;SDS011;1703;51.964;7.642;2024-01-30T09:34:30;11.03;;;8.90;;
3379;SDS011;1703;51.964;7.642;2024-01-30T09:36:57;8.40;;;7.40;;
3379;SDS011;1703;51.964;7.642;2024-01-30T09:39:24;11.23;;;7.63;;
3379;SDS011;1703;51.964;7.642;2024-01-30T09:42:01;16.20;;;7.70;;
3379;SDS011;1703;51.964;7.642;2024-01-30T09:44:31;19.53;;;10.23;;
3379;SDS011;1703;51.964;7.642;2024-01-30T09:47:03;11.43;;;8.07;;
3379;SDS011;1703;51.964;7.642;2024-01-30T09:49:31;8.50;;;7.53;;
3379;SDS011;1703;51.964;7.642;2024-01-30T09:51:58;18.03;;;8.90;;
3379;SDS011;1703;51.964;7.642;2024-01-30T09:54:25;10.83;;;8.00;;
3379;SDS011;1703;51.964;7.642;2024-01-30T09:56:52;12.03;;;8.47;;
3379;SDS011;1703;51.964;7.642;2024-01-30T09:59:18;11.03;;;7.87;;
3379;SDS011;1703;51.964;7.642;2024-01-30T10:01:46;14.77;;;7.87;;
3379;SDS011;1703;51.964;7.642;2024-01-30T10:04:14;11.40;;;7.83;;
3379;SDS011;1703;51.964;7.642;2024-01-30T10:06:41;14.43;;;9.17;;
3379;SDS011;1703;51.964;7.642;2024-01-30T10:09:08;10.53;;;7.73;;
3379;SDS011;1703;51.964;7.642;2024-01-30T10:11:35;10.50;;;8.43;;
3379;SDS011;1703;51.964;7.642;2024-01-30T10:14:02;12.97;;;8.50;;
3379;SDS011;1703;51.964;7.642;2024-01-30T10:16:29;9.10;;;7.87;;
3379;SDS011;1703;51.964;7.642;2024-01-30T10:18:56;12.33;;;8.20;;
3379;SDS011;1703;51.964;7.642;2024-01-30T10:21:24;16.03;;;9.60;;
3379;SDS011;1703;51.964;7.642;2024-01-30T10:23:51;8.80;;;7.77;;
3379;SDS011;1703;51.964;7.642;2024-01-30T10:26:18;19.97;;;8.40;;
3379;SDS011;1703;51.964;7.642;2024-01-30T10:28:45;15.00;;;8.00;;
3379;SDS011;1703;51.964;7.642;2024-01-30T10:31:15;10.77;;;7.80;;
3379;SDS011;1703;51.964;7.642;2024-01-30T10:33:43;12.70;;;7.40;;
3379;SDS011;1703;51.964;7.642;2024-01-30T10:36:10;10.97;;;7.03;;
3379;SDS011;1703;51.964;7.642;2024-01-30T10:38:41;14.53;;;7.80;;
3379;SDS011;1703;51.964;7.642;2024-01-30T10:41:11;10.23;;;7.40;;
3379;SDS011;1703;51.964;7.642;2024-01-30T10:43:50;12.63;;;8.70;;
3379;SDS011;1703;51.964;7.642;2024-01-30T10:46:25;13.03;;;8.20;;
3379;SDS011;1703;51.964;7.642;2024-01-30T10:48:56;9.23;;;7.53;;
3379;SDS011;1703;51.964;7.642;2024-01-30T10:51:24;13.57;;;8.10;;
3379;SDS011;1703;51.964;7.642;2024-01-30T10:53:52;12.37;;;7.00;;
3379;SDS011;1703;51.964;7.642;2024-01-30T10:56:20;12.90;;;7.13;;
3379;SDS011;1703;51.964;7.642;2024-01-30T10:58:49;13.07;;;8.40;;
3379;SDS011;1703;51.964;7.642;2024-01-30T11:01:17;10.80;;;8.10;;
3379;SDS011;1703;51.964;7.642;2024-01-30T11:03:45;12.63;;;8.20;;
3379;SDS011;1703;51.964;7.642;2024-01-30T11:06:12;12.17;;;7.50;;
3379;SDS011;1703;51.964;7.642;2024-01-30T11:08:43;17.00;;;7.73;;
3379;SDS011;1703;51.964;7.642;2024-01-30T11:11:10;20.07;;;9.33;;
3379;SDS011;1703;51.964;7.642;2024-01-30T11:13:37;10.87;;;7.60;;
3379;SDS011;1703;51.964;7.642;2024-01-30T11:16:06;12.10;;;8.60;;
3379;SDS011;1703;51.964;7.642;2024-01-30T11:18:33;12.83;;;7.57;;
3379;SDS011;1703;51.964;7.642;2024-01-30T11:21:04;15.60;;;7.90;;
3379;SDS011;1703;51.964;7.642;2024-01-30T11:23:33;11.70;;;8.90;;
3379;SDS011;1703;51.964;7.642;2024-01-30T11:26:00;8.47;;;7.10;;
3379;SDS011;1703;51.964;7.642;2024-01-30T11:28:32;9.70;;;7.43;;
3379;SDS011;1703;51.964;7.642;2024-01-30T11:31:03;11.90;;;6.80;;
3379;SDS011;1703;51.964;7.642;2024-01-30T11:33:35;7.27;;;5.33;;
3379;SDS011;1703;51.964;7.642;2024-01-30T11:36:02;9.63;;;6.97;;
3379;SDS011;1703;51.964;7.642;2024-01-30T11:38:32;12.43;;;7.00;;
3379;SDS011;1703;51.964;7.642;2024-01-30T11:40:58;10.23;;;6.90;;
3379;SDS011;1703;51.964;7.642;2024-01-30T11:43:26;10.17;;;6.57;;
3379;SDS011;1703;51.964;7.642;2024-01-30T11:45:53;12.93;;;7.07;;
3379;SDS011;1703;51.964;7.642;2024-01-30T11:48:20;12.83;;;6.70;;
3379;SDS011;1703;51.964;7.642;2024-01-30T11:50:48;8.40;;;6.30;;
3379;SDS011;1703;51.964;7.642;2024-01-30T11:53:16;11.50;;;7.23;;
3379;SDS011;1703;51.964;7.642;2024-01-30T11:55:49;14.20;;;7.20;;
3379;SDS011;1703;51.964;7.642;2024-01-30T11:58:16;9.97;;;7.27;;
3379;SDS011;1703;51.964;7.642;2024-01-30T12:00:42;15.13;;;7.93;;
3379;SDS011;1703;51.964;7.642;2024-01-30T12:03:18;19.73;;;6.97;;
3379;SDS011;1703;51.964;7.642;2024-01-30T12:05:45;14.63;;;8.53;;
3379;SDS011;1703;51.964;7.642;2024-01-30T12:08:15;9.30;;;6.70;;
3379;SDS011;1703;51.964;7.642;2024-01-30T12:10:42;20.03;;;8.07;;
3379;SDS011;1703;51.964;7.642;2024-01-30T12:13:09;11.30;;;7.67;;
3379;SDS011;1703;51.964;7.642;2024-01-30T12:15:36;13.43;;;7.37;;
3379;SDS011;1703;51.964;7.642;2024-01-30T12:18:03;14.90;;;7.60;;
3379;SDS011;1703;51.964;7.642;2024-01-30T12:20:31;9.00;;;6.43;;
3379;SDS011;1703;51.964;7.642;2024-01-30T12:22:57;10.70;;;6.43;;
3379;SDS011;1703;51.964;7.642;2024-01-30T12:25:26;11.90;;;7.17;;
3379;SDS011;1703;51.964;7.642;2024-01-30T12:27:52;15.30;;;6.70;;
3379;SDS011;1703;51.964;7.642;2024-01-30T12:30:20;14.63;;;8.10;;
3379;SDS011;1703;51.964;7.642;2024-01-30T12:32:48;19.20;;;7.30;;
3379;SDS011;1703;51.964;7.642;2024-01-30T12:35:17;9.37;;;6.87;;
3379;SDS011;1703;51.964;7.642;2024-01-30T12:37:45;9.27;;;6.80;;
3379;SDS011;1703;51.964;7.642;2024-01-30T12:40:13;11.20;;;8.17;;
3379;SDS011;1703;51.964;7.642;2024-01-30T12:42:42;11.10;;;7.80;;
3379;SDS011;1703;51.964;7.642;2024-01-30T12:45:11;9.73;;;7.23;;
3379;SDS011;1703;51.964;7.642;2024-01-30T12:47:39;12.80;;;7.10;;
3379;SDS011;1703;51.964;7.642;2024-01-30T12:50:07;14.70;;;7.70;;
3379;SDS011;1703;51.964;7.642;2024-01-30T12:52:35;17.13;;;8.80;;
3379;SDS011;1703;51.964;7.642;2024-01-30T12:55:10;7.10;;;6.40;;
3379;SDS011;1703;51.964;7.642;2024-01-30T12:57:38;11.50;;;7.97;;
3379;SDS011;1703;51.964;7.642;2024-01-30T13:00:06;14.77;;;7.37;;
3379;SDS011;1703;51.964;7.642;2024-01-30T13:02:37;15.77;;;7.20;;
3379;SDS011;1703;51.964;7.642;2024-01-30T13:05:04;10.67;;;8.07;;
3379;SDS011;1703;51.964;7.642;2024-01-30T13:07:34;8.90;;;7.33;;
3379;SDS011;1703;51.964;7.642;2024-01-30T13:10:01;14.27;;;7.73;;
3379;SDS011;1703;51.964;7.642;2024-01-30T13:12:31;11.67;;;7.37;;
3379;SDS011;1703;51.964;7.642;2024-01-30T13:14:59;15.83;;;7.70;;
3379;SDS011;1703;51.964;7.642;2024-01-30T13:17:30;14.80;;;7.30;;
3379;SDS011;1703;51.964;7.642;2024-01-30T13:19:59;10.20;;;6.80;;
3379;SDS011;1703;51.964;7.642;2024-01-30T13:22:26;16.90;;;8.17;;
3379;SDS011;1703;51.964;7.642;2024-01-30T13:24:53;12.07;;;8.63;;
3379;SDS011;1703;51.964;7.642;2024-01-30T13:27:20;21.67;;;8.13;;
3379;SDS011;1703;51.964;7.642;2024-01-30T13:29:47;18.40;;;8.17;;
3379;SDS011;1703;51.964;7.642;2024-01-30T13:32:14;10.57;;;7.20;;
3379;SDS011;1703;51.964;7.642;2024-01-30T13:34:42;21.23;;;7.53;;
3379;SDS011;1703;51.964;7.642;2024-01-30T13:37:09;10.50;;;7.50;;
3379;SDS011;1703;51.964;7.642;2024-01-30T13:39:36;14.77;;;7.57;;
3379;SDS011;1703;51.964;7.642;2024-01-30T13:42:04;10.60;;;8.40;;
3379;SDS011;1703;51.964;7.642;2024-01-30T13:44:33;12.10;;;8.47;;
3379;SDS011;1703;51.964;7.642;2024-01-30T13:47:02;17.83;;;7.90;;
3379;SDS011;1703;51.964;7.642;2024-01-30T13:49:29;14.43;;;7.13;;
3379;SDS011;1703;51.964;7.642;2024-01-30T13:52:07;10.57;;;7.40;;
3379;SDS011;1703;51.964;7.642;2024-01-30T13:54:43;10.13;;;7.73;;
3379;SDS011;1703;51.964;7.642;2024-01-30T13:57:10;10.20;;;7.50;;
3379;SDS011;1703;51.964;7.642;2024-01-30T13:59:37;10.80;;;7.40;;
3379;SDS011;1703;51.964;7.642;2024-01-30T14:02:07;14.90;;;7.60;;
3379;SDS011;1703;51.964;7.642;2024-01-30T14:04:35;10.87;;;6.53;;
3379;SDS011;1703;51.964;7.642;2024-01-30T14:07:02;10.93;;;6.83;;
3379;SDS011;1703;51.964;7.642;2024-01-30T14:09:31;12.67;;;7.00;;
3379;SDS011;1703;51.964;7.642;2024-01-30T14:11:59;7.10;;;6.33;;
3379;SDS011;1703;51.964;7.642;2024-01-30T14:14:26;9.93;;;6.90;;
3379;SDS011;1703;51.964;7.642;2024-01-30T14:16:53;10.10;;;7.17;;
3379;SDS011;1703;51.964;7.642;2024-01-30T14:19:19;18.30;;;6.97;;
3379;SDS011;1703;51.964;7.642;2024-01-30T14:21:46;11.37;;;8.00;;
3379;SDS011;1703;51.964;7.642;2024-01-30T14:24:13;12.50;;;7.47;;
3379;SDS011;1703;51.964;7.642;2024-01-30T14:26:41;15.13;;;10.43;;
3379;SDS011;1703;51.964;7.642;2024-01-30T14:29:09;11.70;;;7.30;;
3379;SDS011;1703;51.964;7.642;2024-01-30T14:31:36;17.10;;;8.43;;
3379;SDS011;1703;51.964;7.642;2024-01-30T14:34:06;12.80;;;7.43;;
3379;SDS011;1703;51.964;7.642;2024-01-30T14:36:33;10.90;;;7.97;;
3379;SDS011;1703;51.964;7.642;2024-01-30T14:39:00;10.20;;;7.33;;
3379;SDS011;1703;51.964;7.642;2024-01-30T14:41:28;25.23;;;8.03;;
3379;SDS011;1703;51.964;7.642;2024-01-30T14:43:56;16.60;;;6.07;;
3379;SDS011;1703;51.964;7.642;2024-01-30T14:46:23;10.00;;;6.70;;
3379;SDS011;1703;51.964;7.642;2024-01-30T14:48:51;14.50;;;7.57;;
3379;SDS011;1703;51.964;7.642;2024-01-30T14:51:19;7.10;;;6.40;;
3379;SDS011;1703;51.964;7.642;2024-01-30T14:53:46;8.10;;;6.20;;
3379;SDS011;1703;51.964;7.642;2024-01-30T14:56:13;10.40;;;6.53;;
3379;SDS011;1703;51.964;7.642;2024-01-30T14:58:39;11.87;;;7.30;;
3379;SDS011;1703;51.964;7.642;2024-01-30T15:01:09;17.57;;;8.30;;